sensor_id;sensor_type;location;lat;lon;timestamp;pressure;altitude;pressure_sealevel;temperature
78917;BMP280;68315;48.608;11.436;2023-04-01T00:02:00;95910.78;;;9.14
78917;BMP280;68315;48.608;11.436;2023-04-01T00:04:25;95912.41;;;9.17
78917;BMP280;68315;48.608;11.436;2023-04-01T00:06:50;95912.25;;;9.15
78917;BMP280;68315;48.608;11.436;2023-04-01T00:09:16;95939.50;;;9.13
78917;BMP280;68315;48.608;11.436;2023-04-01T00:11:42;95912.09;;;9.13
78917;BMP280;68315;48.608;11.436;2023-04-01T00:14:07;95915.38;;;9.11
78917;BMP280;68315;48.608;11.436;2023-04-01T00:16:33;95911.88;;;9.11
78917;BMP280;68315;48.608;11.436;2023-04-01T00:18:58;95911.19;;;9.10
78917;BMP280;68315;48.608;11.436;2023-04-01T00:21:25;95917.56;;;9.13
78917;BMP280;68315;48.608;11.436;2023-04-01T00:23:51;95906.03;;;9.14
78917;BMP280;68315;48.608;11.436;2023-04-01T00:26:16;95915.72;;;9.15
78917;BMP280;68315;48.608;11.436;2023-04-01T00:28:46;95914.97;;;9.15
78917;BMP280;68315;48.608;11.436;2023-04-01T00:31:12;95910.78;;;9.14
78917;BMP280;68315;48.608;11.436;2023-04-01T00:33:38;95907.16;;;9.11
78917;BMP280;68315;48.608;11.436;2023-04-01T00:36:11;95918.47;;;9.08
78917;BMP280;68315;48.608;11.436;2023-04-01T00:38:37;95902.22;;;9.02
78917;BMP280;68315;48.608;11.436;2023-04-01T00:41:04;95899.13;;;8.98
78917;BMP280;68315;48.608;11.436;2023-04-01T00:43:29;95902.81;;;8.93
78917;BMP280;68315;48.608;11.436;2023-04-01T00:45:55;95913.94;;;8.88
78917;BMP280;68315;48.608;11.436;2023-04-01T00:48:27;95897.69;;;8.82
78917;BMP280;68315;48.608;11.436;2023-04-01T00:50:58;95897.69;;;8.82
78917;BMP280;68315;48.608;11.436;2023-04-01T00:53:25;95913.56;;;8.76
78917;BMP280;68315;48.608;11.436;2023-04-01T00:55:55;95897.50;;;8.73
78917;BMP280;68315;48.608;11.436;2023-04-01T00:58:23;95903.88;;;8.68
78917;BMP280;68315;48.608;11.436;2023-04-01T01:00:50;95890.00;;;8.66
78917;BMP280;68315;48.608;11.436;2023-04-01T01:03:16;95898.03;;;8.64
78917;BMP280;68315;48.608;11.436;2023-04-01T01:05:57;95889.84;;;8.64
78917;BMP280;68315;48.608;11.436;2023-04-01T01:11:05;95888.72;;;8.67
78917;BMP280;68315;48.608;11.436;2023-04-01T01:13:53;95884.16;;;8.69
78917;BMP280;68315;48.608;11.436;2023-04-01T01:16:25;95883.44;;;8.69
78917;BMP280;68315;48.608;11.436;2023-04-01T01:24:42;95894.78;;;8.65
78917;BMP280;68315;48.608;11.436;2023-04-01T01:27:11;95889.09;;;8.63
78917;BMP280;68315;48.608;11.436;2023-04-01T01:38:13;95885.25;;;8.66
78917;BMP280;68315;48.608;11.436;2023-04-01T01:40:41;95872.13;;;8.65
78917;BMP280;68315;48.608;11.436;2023-04-01T01:43:10;95868.66;;;8.64
78917;BMP280;68315;48.608;11.436;2023-04-01T01:45:40;95875.22;;;8.61
78917;BMP280;68315;48.608;11.436;2023-04-01T01:48:09;95867.56;;;8.60
78917;BMP280;68315;48.608;11.436;2023-04-01T01:50:36;95870.84;;;8.58
78917;BMP280;68315;48.608;11.436;2023-04-01T01:53:07;95866.47;;;8.55
78917;BMP280;68315;48.608;11.436;2023-04-01T01:55:36;95870.69;;;8.56
78917;BMP280;68315;48.608;11.436;2023-04-01T01:58:10;95867.34;;;8.57
78917;BMP280;68315;48.608;11.436;2023-04-01T02:00:37;95874.13;;;8.56
78917;BMP280;68315;48.608;11.436;2023-04-01T02:03:04;95856.81;;;8.54
78917;BMP280;68315;48.608;11.436;2023-04-01T02:05:30;95857.34;;;8.52
78917;BMP280;68315;48.608;11.436;2023-04-01T02:08:02;95866.63;;;8.49
78917;BMP280;68315;48.608;11.436;2023-04-01T02:10:33;95866.28;;;8.53
78917;BMP280;68315;48.608;11.436;2023-04-01T02:13:02;95864.28;;;8.53
78917;BMP280;68315;48.608;11.436;2023-04-01T02:15:32;95867.56;;;8.52
78917;BMP280;68315;48.608;11.436;2023-04-01T02:18:03;95869.19;;;8.47
78917;BMP280;68315;48.608;11.436;2023-04-01T02:20:29;95881.06;;;8.50
78917;BMP280;68315;48.608;11.436;2023-04-01T02:22:56;95888.38;;;8.55
78917;BMP280;68315;48.608;11.436;2023-04-01T02:25:28;95876.69;;;8.54
78917;BMP280;68315;48.608;11.436;2023-04-01T02:27:54;95882.91;;;8.55
78917;BMP280;68315;48.608;11.436;2023-04-01T02:30:22;95893.09;;;8.54
78917;BMP280;68315;48.608;11.436;2023-04-01T02:32:48;95881.03;;;8.57
78917;BMP280;68315;48.608;11.436;2023-04-01T02:35:16;95883.78;;;8.57
78917;BMP280;68315;48.608;11.436;2023-04-01T02:37:43;95903.13;;;8.52
78917;BMP280;68315;48.608;11.436;2023-04-01T02:40:12;95885.28;;;8.51
78917;BMP280;68315;48.608;11.436;2023-04-01T02:42:38;95874.69;;;8.55
78917;BMP280;68315;48.608;11.436;2023-04-01T02:45:05;95889.25;;;8.57
78917;BMP280;68315;48.608;11.436;2023-04-01T02:47:30;95887.25;;;8.58
78917;BMP280;68315;48.608;11.436;2023-04-01T02:49:55;95888.56;;;8.57
78917;BMP280;68315;48.608;11.436;2023-04-01T02:52:28;95895.13;;;8.62
78917;BMP280;68315;48.608;11.436;2023-04-01T02:54:53;95896.38;;;8.61
78917;BMP280;68315;48.608;11.436;2023-04-01T02:57:19;95900.22;;;8.57
78917;BMP280;68315;48.608;11.436;2023-04-01T02:59:45;95895.13;;;8.54
78917;BMP280;68315;48.608;11.436;2023-04-01T03:02:10;95881.97;;;8.52
78917;BMP280;68315;48.608;11.436;2023-04-01T03:04:35;95908.25;;;8.48
78917;BMP280;68315;48.608;11.436;2023-04-01T03:07:00;95899.16;;;8.45
78917;BMP280;68315;48.608;11.436;2023-04-01T03:09:26;95904.22;;;8.41
78917;BMP280;68315;48.608;11.436;2023-04-01T03:11:51;95902.22;;;8.34
78917;BMP280;68315;48.608;11.436;2023-04-01T03:14:16;95911.53;;;8.31
78917;BMP280;68315;48.608;11.436;2023-04-01T03:16:42;95916.25;;;8.31
78917;BMP280;68315;48.608;11.436;2023-04-01T03:19:07;95910.03;;;8.30
78917;BMP280;68315;48.608;11.436;2023-04-01T03:21:32;95914.03;;;8.29
78917;BMP280;68315;48.608;11.436;2023-04-01T03:23:58;95929.75;;;8.29
78917;BMP280;68315;48.608;11.436;2023-04-01T03:26:23;95923.91;;;8.25
78917;BMP280;68315;48.608;11.436;2023-04-01T03:28:49;95914.03;;;8.22
78917;BMP280;68315;48.608;11.436;2023-04-01T03:31:14;95927.72;;;8.22
78917;BMP280;68315;48.608;11.436;2023-04-01T03:33:41;95916.97;;;8.24
78917;BMP280;68315;48.608;11.436;2023-04-01T03:36:06;95920.25;;;8.22
78917;BMP280;68315;48.608;11.436;2023-04-01T03:38:33;95926.63;;;8.17
78917;BMP280;68315;48.608;11.436;2023-04-01T03:40:58;95932.09;;;8.17
78917;BMP280;68315;48.608;11.436;2023-04-01T03:43:24;95945.56;;;8.15
78917;BMP280;68315;48.608;11.436;2023-04-01T03:45:51;95951.75;;;8.16
78917;BMP280;68315;48.608;11.436;2023-04-01T03:48:17;95945.75;;;8.17
78917;BMP280;68315;48.608;11.436;2023-04-01T03:50:42;95937.34;;;8.15
78917;BMP280;68315;48.608;11.436;2023-04-01T03:53:08;95930.81;;;8.18
78917;BMP280;68315;48.608;11.436;2023-04-01T03:55:35;95953.06;;;8.15
78917;BMP280;68315;48.608;11.436;2023-04-01T03:58:00;95937.00;;;8.11
78917;BMP280;68315;48.608;11.436;2023-04-01T04:00:28;95936.78;;;8.09
78917;BMP280;68315;48.608;11.436;2023-04-01T04:02:53;95951.00;;;8.08
78917;BMP280;68315;48.608;11.436;2023-04-01T04:05:19;95947.91;;;8.04
78917;BMP280;68315;48.608;11.436;2023-04-01T04:07:45;95955.56;;;8.05
78917;BMP280;68315;48.608;11.436;2023-04-01T04:10:10;95942.59;;;7.98
78917;BMP280;68315;48.608;11.436;2023-04-01T04:12:35;95946.78;;;7.99
78917;BMP280;68315;48.608;11.436;2023-04-01T04:15:01;95934.59;;;8.00
78917;BMP280;68315;48.608;11.436;2023-04-01T04:17:26;95950.06;;;7.98
78917;BMP280;68315;48.608;11.436;2023-04-01T04:19:51;95946.22;;;7.93
78917;BMP280;68315;48.608;11.436;2023-04-01T04:22:16;95936.91;;;7.89
78917;BMP280;68315;48.608;11.436;2023-04-01T04:24:42;95942.56;;;7.83
78917;BMP280;68315;48.608;11.436;2023-04-01T04:27:07;95938.50;;;7.84
78917;BMP280;68315;48.608;11.436;2023-04-01T04:29:32;95952.91;;;7.84
78917;BMP280;68315;48.608;11.436;2023-04-01T04:31:57;95959.28;;;7.79
78917;BMP280;68315;48.608;11.436;2023-04-01T04:34:23;95948.03;;;7.83
78917;BMP280;68315;48.608;11.436;2023-04-01T04:36:48;95946.72;;;7.84
78917;BMP280;68315;48.608;11.436;2023-04-01T04:39:14;95959.13;;;7.85
78917;BMP280;68315;48.608;11.436;2023-04-01T04:41:40;95960.97;;;7.90
78917;BMP280;68315;48.608;11.436;2023-04-01T04:44:05;95943.84;;;7.90
78917;BMP280;68315;48.608;11.436;2023-04-01T04:46:31;95959.53;;;7.89
78917;BMP280;68315;48.608;11.436;2023-04-01T04:48:56;95956.38;;;7.85
78917;BMP280;68315;48.608;11.436;2023-04-01T04:51:21;95982.25;;;7.84
78917;BMP280;68315;48.608;11.436;2023-04-01T04:53:47;95969.91;;;7.83
78917;BMP280;68315;48.608;11.436;2023-04-01T04:56:13;95961.47;;;7.81
78917;BMP280;68315;48.608;11.436;2023-04-01T04:58:42;95958.03;;;7.80
78917;BMP280;68315;48.608;11.436;2023-04-01T05:01:09;95977.69;;;7.79
78917;BMP280;68315;48.608;11.436;2023-04-01T05:03:35;95967.16;;;7.83
78917;BMP280;68315;48.608;11.436;2023-04-01T05:06:01;95968.59;;;7.84
78917;BMP280;68315;48.608;11.436;2023-04-01T05:08:26;95950.34;;;7.79
78917;BMP280;68315;48.608;11.436;2023-04-01T05:10:52;95954.91;;;7.84
78917;BMP280;68315;48.608;11.436;2023-04-01T05:13:17;95959.13;;;7.85
78917;BMP280;68315;48.608;11.436;2023-04-01T05:15:42;95958.97;;;7.91
78917;BMP280;68315;48.608;11.436;2023-04-01T05:18:07;95975.72;;;7.87
78917;BMP280;68315;48.608;11.436;2023-04-01T05:20:33;95967.19;;;7.91
78917;BMP280;68315;48.608;11.436;2023-04-01T05:22:59;95966.66;;;7.92
78917;BMP280;68315;48.608;11.436;2023-04-01T05:25:25;95973.75;;;7.95
78917;BMP280;68315;48.608;11.436;2023-04-01T05:27:50;95964.13;;;7.94
78917;BMP280;68315;48.608;11.436;2023-04-01T05:30:16;95976.69;;;7.97
78917;BMP280;68315;48.608;11.436;2023-04-01T05:32:41;95967.41;;;8.00
78917;BMP280;68315;48.608;11.436;2023-04-01T05:35:07;95961.22;;;8.07
78917;BMP280;68315;48.608;11.436;2023-04-01T05:37:36;95975.44;;;8.06
78917;BMP280;68315;48.608;11.436;2023-04-01T05:40:02;95973.63;;;8.08
78917;BMP280;68315;48.608;11.436;2023-04-01T05:42:27;95976.03;;;8.12
78917;BMP280;68315;48.608;11.436;2023-04-01T05:44:52;95963.28;;;8.14
78917;BMP280;68315;48.608;11.436;2023-04-01T05:47:22;95966.75;;;8.22
78917;BMP280;68315;48.608;11.436;2023-04-01T05:49:47;95977.53;;;8.20
78917;BMP280;68315;48.608;11.436;2023-04-01T05:52:12;95970.56;;;8.19
78917;BMP280;68315;48.608;11.436;2023-04-01T05:54:37;95965.69;;;8.25
78917;BMP280;68315;48.608;11.436;2023-04-01T05:57:03;95969.69;;;8.32
78917;BMP280;68315;48.608;11.436;2023-04-01T05:59:28;95964.97;;;8.32
78917;BMP280;68315;48.608;11.436;2023-04-01T06:01:56;95984.47;;;8.36
78917;BMP280;68315;48.608;11.436;2023-04-01T06:04:21;95960.03;;;8.38
78917;BMP280;68315;48.608;11.436;2023-04-01T06:06:46;95980.34;;;8.43
78917;BMP280;68315;48.608;11.436;2023-04-01T06:09:17;95990.72;;;8.44
78917;BMP280;68315;48.608;11.436;2023-04-01T06:12:06;95983.06;;;8.50
78917;BMP280;68315;48.608;11.436;2023-04-01T06:15:03;95965.91;;;8.50
78917;BMP280;68315;48.608;11.436;2023-04-01T06:17:58;95992.53;;;8.49
78917;BMP280;68315;48.608;11.436;2023-04-01T06:23:58;95976.19;;;8.65
78917;BMP280;68315;48.608;11.436;2023-04-01T06:26:37;95970.50;;;8.78
78917;BMP280;68315;48.608;11.436;2023-04-01T06:32:22;95979.47;;;9.08
78917;BMP280;68315;48.608;11.436;2023-04-01T06:46:27;95990.38;;;9.54
78917;BMP280;68315;48.608;11.436;2023-04-01T06:52:08;95990.44;;;9.39
78917;BMP280;68315;48.608;11.436;2023-04-01T06:54:38;95979.47;;;9.23
78917;BMP280;68315;48.608;11.436;2023-04-01T06:59:43;95982.06;;;9.21
78917;BMP280;68315;48.608;11.436;2023-04-01T07:04:37;95983.13;;;9.26
78917;BMP280;68315;48.608;11.436;2023-04-01T07:07:16;95996.25;;;9.27
78917;BMP280;68315;48.608;11.436;2023-04-01T07:09:50;95993.72;;;9.29
78917;BMP280;68315;48.608;11.436;2023-04-01T07:15:02;95987.13;;;9.32
78917;BMP280;68315;48.608;11.436;2023-04-01T07:17:32;95975.97;;;9.46
78917;BMP280;68315;48.608;11.436;2023-04-01T07:20:02;95996.06;;;9.48
78917;BMP280;68315;48.608;11.436;2023-04-01T07:22:32;95993.31;;;9.63
78917;BMP280;68315;48.608;11.436;2023-04-01T07:25:13;95980.47;;;9.81
78917;BMP280;68315;48.608;11.436;2023-04-01T07:27:41;95980.44;;;9.88
78917;BMP280;68315;48.608;11.436;2023-04-01T07:30:14;95992.78;;;10.04
78917;BMP280;68315;48.608;11.436;2023-04-01T07:32:44;95996.84;;;10.03
78917;BMP280;68315;48.608;11.436;2023-04-01T07:35:25;95995.34;;;10.10
78917;BMP280;68315;48.608;11.436;2023-04-01T07:38:11;95977.97;;;10.07
78917;BMP280;68315;48.608;11.436;2023-04-01T07:40:51;95987.41;;;10.22
78917;BMP280;68315;48.608;11.436;2023-04-01T07:46:20;95970.13;;;10.36
78917;BMP280;68315;48.608;11.436;2023-04-01T07:51:27;95999.00;;;10.45
78917;BMP280;68315;48.608;11.436;2023-04-01T07:56:57;95980.78;;;10.64
78917;BMP280;68315;48.608;11.436;2023-04-01T07:59:43;95986.44;;;10.91
78917;BMP280;68315;48.608;11.436;2023-04-01T08:02:36;95974.31;;;10.94
78917;BMP280;68315;48.608;11.436;2023-04-01T08:05:17;95976.75;;;10.90
78917;BMP280;68315;48.608;11.436;2023-04-01T08:07:55;95969.03;;;10.88
78917;BMP280;68315;48.608;11.436;2023-04-01T08:18:53;95955.72;;;10.85
78917;BMP280;68315;48.608;11.436;2023-04-01T08:21:28;95963.81;;;11.00
78917;BMP280;68315;48.608;11.436;2023-04-01T08:23:57;95958.56;;;10.94
78917;BMP280;68315;48.608;11.436;2023-04-01T08:26:43;95966.25;;;10.96
78917;BMP280;68315;48.608;11.436;2023-04-01T08:29:15;95963.00;;;10.90
78917;BMP280;68315;48.608;11.436;2023-04-01T08:31:57;95967.63;;;10.80
78917;BMP280;68315;48.608;11.436;2023-04-01T08:34:26;95962.59;;;10.93
78917;BMP280;68315;48.608;11.436;2023-04-01T08:37:08;95968.09;;;10.93
78917;BMP280;68315;48.608;11.436;2023-04-01T08:39:45;95891.88;;;10.94
78917;BMP280;68315;48.608;11.436;2023-04-01T08:48:04;95958.34;;;11.17
78917;BMP280;68315;48.608;11.436;2023-04-01T08:53:43;95947.53;;;11.36
78917;BMP280;68315;48.608;11.436;2023-04-01T08:56:20;95995.38;;;11.58
78917;BMP280;68315;48.608;11.436;2023-04-01T09:40:28;95948.50;;;11.65
78917;BMP280;68315;48.608;11.436;2023-04-01T09:46:10;95918.50;;;11.60
78917;BMP280;68315;48.608;11.436;2023-04-01T09:57:37;95919.91;;;11.78
78917;BMP280;68315;48.608;11.436;2023-04-01T10:09:47;95947.53;;;11.70
78917;BMP280;68315;48.608;11.436;2023-04-01T10:12:27;95936.22;;;11.66
78917;BMP280;68315;48.608;11.436;2023-04-01T10:15:32;95937.13;;;11.52
78917;BMP280;68315;48.608;11.436;2023-04-01T10:20:55;95942.38;;;11.40
78917;BMP280;68315;48.608;11.436;2023-04-01T10:23:35;95941.09;;;11.41
78917;BMP280;68315;48.608;11.436;2023-04-01T10:26:22;95932.84;;;11.41
78917;BMP280;68315;48.608;11.436;2023-04-01T10:46:11;95957.72;;;10.84
78917;BMP280;68315;48.608;11.436;2023-04-01T10:49:10;95915.28;;;10.78
78917;BMP280;68315;48.608;11.436;2023-04-01T10:55:23;95941.88;;;10.75
78917;BMP280;68315;48.608;11.436;2023-04-01T11:14:24;95932.34;;;10.20
78917;BMP280;68315;48.608;11.436;2023-04-01T11:19:50;95973.16;;;9.83
78917;BMP280;68315;48.608;11.436;2023-04-01T11:28:51;95960.94;;;9.62
78917;BMP280;68315;48.608;11.436;2023-04-01T11:42:55;95975.41;;;9.55
78917;BMP280;68315;48.608;11.436;2023-04-01T11:45:37;95972.13;;;9.49
78917;BMP280;68315;48.608;11.436;2023-04-01T12:08:06;95976.00;;;9.15
78917;BMP280;68315;48.608;11.436;2023-04-01T12:10:50;95974.19;;;9.18
78917;BMP280;68315;48.608;11.436;2023-04-01T12:18:52;95979.47;;;9.31
78917;BMP280;68315;48.608;11.436;2023-04-01T12:27:06;95973.03;;;9.44
78917;BMP280;68315;48.608;11.436;2023-04-01T12:29:49;95983.47;;;9.53
78917;BMP280;68315;48.608;11.436;2023-04-01T12:35:19;95954.91;;;9.63
78917;BMP280;68315;48.608;11.436;2023-04-01T12:40:38;95972.28;;;9.66
78917;BMP280;68315;48.608;11.436;2023-04-01T12:43:22;95977.72;;;9.73
78917;BMP280;68315;48.608;11.436;2023-04-01T13:05:42;95961.59;;;10.25
78917;BMP280;68315;48.608;11.436;2023-04-01T13:14:31;95974.97;;;10.21
78917;BMP280;68315;48.608;11.436;2023-04-01T13:19:58;96004.13;;;10.08
78917;BMP280;68315;48.608;11.436;2023-04-01T13:25:36;96005.25;;;9.98
78917;BMP280;68315;48.608;11.436;2023-04-01T13:28:19;95995.91;;;10.01
78917;BMP280;68315;48.608;11.436;2023-04-01T13:33:41;96007.09;;;9.95
78917;BMP280;68315;48.608;11.436;2023-04-01T13:44:24;96021.78;;;9.83
78917;BMP280;68315;48.608;11.436;2023-04-01T13:52:45;96006.19;;;10.00
78917;BMP280;68315;48.608;11.436;2023-04-01T13:55:45;95999.41;;;10.01
78917;BMP280;68315;48.608;11.436;2023-04-01T13:58:31;96005.63;;;10.02
78917;BMP280;68315;48.608;11.436;2023-04-01T14:01:12;96010.03;;;9.97
78917;BMP280;68315;48.608;11.436;2023-04-01T14:06:36;96002.00;;;9.92
78917;BMP280;68315;48.608;11.436;2023-04-01T14:12:06;96015.31;;;9.95
78917;BMP280;68315;48.608;11.436;2023-04-01T14:15:03;95994.47;;;10.00
78917;BMP280;68315;48.608;11.436;2023-04-01T14:18:06;96001.03;;;10.04
78917;BMP280;68315;48.608;11.436;2023-04-01T14:20:38;96000.66;;;10.08
78917;BMP280;68315;48.608;11.436;2023-04-01T14:23:30;95994.22;;;10.13
78917;BMP280;68315;48.608;11.436;2023-04-01T14:26:18;95997.84;;;10.23
78917;BMP280;68315;48.608;11.436;2023-04-01T14:31:59;95993.75;;;10.39
78917;BMP280;68315;48.608;11.436;2023-04-01T14:34:49;95987.47;;;10.46
78917;BMP280;68315;48.608;11.436;2023-04-01T14:50:52;95969.41;;;10.68
78917;BMP280;68315;48.608;11.436;2023-04-01T14:58:15;95994.94;;;10.78
78917;BMP280;68315;48.608;11.436;2023-04-01T15:06:20;96012.03;;;10.69
78917;BMP280;68315;48.608;11.436;2023-04-01T15:09:24;96010.75;;;10.70
78917;BMP280;68315;48.608;11.436;2023-04-01T15:17:42;96017.06;;;10.55
78917;BMP280;68315;48.608;11.436;2023-04-01T15:26:19;96025.94;;;10.39
78917;BMP280;68315;48.608;11.436;2023-04-01T15:29:18;96036.38;;;10.40
78917;BMP280;68315;48.608;11.436;2023-04-01T15:31:54;96018.28;;;10.37
78917;BMP280;68315;48.608;11.436;2023-04-01T15:37:23;96026.34;;;10.28
78917;BMP280;68315;48.608;11.436;2023-04-01T15:40:07;96035.72;;;10.25
78917;BMP280;68315;48.608;11.436;2023-04-01T15:43:22;96042.13;;;10.20
78917;BMP280;68315;48.608;11.436;2023-04-01T15:45:36;96045.44;;;10.18
78917;BMP280;68315;48.608;11.436;2023-04-01T15:53:24;96049.84;;;10.13
78917;BMP280;68315;48.608;11.436;2023-04-01T15:56:11;96038.69;;;10.11
78917;BMP280;68315;48.608;11.436;2023-04-01T15:58:48;96038.50;;;10.17
78917;BMP280;68315;48.608;11.436;2023-04-01T16:04:16;96047.84;;;10.14
78917;BMP280;68315;48.608;11.436;2023-04-01T16:14:50;96045.75;;;10.30
78917;BMP280;68315;48.608;11.436;2023-04-01T16:20:24;96043.69;;;10.38
78917;BMP280;68315;48.608;11.436;2023-04-01T16:23:26;96043.69;;;10.38
78917;BMP280;68315;48.608;11.436;2023-04-01T16:26:17;96047.75;;;10.37
78917;BMP280;68315;48.608;11.436;2023-04-01T16:28:55;96050.50;;;10.37
78917;BMP280;68315;48.608;11.436;2023-04-01T16:31:53;96033.41;;;10.46
78917;BMP280;68315;48.608;11.436;2023-04-01T16:34:34;96056.84;;;10.47
78917;BMP280;68315;48.608;11.436;2023-04-01T16:37:09;96050.25;;;10.50
78917;BMP280;68315;48.608;11.436;2023-04-01T16:43:06;96047.50;;;10.50
78917;BMP280;68315;48.608;11.436;2023-04-01T16:45:43;96052.94;;;10.57
78917;BMP280;68315;48.608;11.436;2023-04-01T16:48:15;96060.50;;;10.49
78917;BMP280;68315;48.608;11.436;2023-04-01T16:53:42;96070.97;;;10.43
78917;BMP280;68315;48.608;11.436;2023-04-01T16:56:27;96062.03;;;10.43
78917;BMP280;68315;48.608;11.436;2023-04-01T16:59:02;96071.34;;;10.40
78917;BMP280;68315;48.608;11.436;2023-04-01T17:01:40;96080.91;;;10.31
78917;BMP280;68315;48.608;11.436;2023-04-01T17:04:17;96074.72;;;10.23
78917;BMP280;68315;48.608;11.436;2023-04-01T17:06:55;96072.88;;;10.26
78917;BMP280;68315;48.608;11.436;2023-04-01T17:10:02;96072.88;;;10.18
78917;BMP280;68315;48.608;11.436;2023-04-01T17:13:27;96085.16;;;10.17
78917;BMP280;68315;48.608;11.436;2023-04-01T17:19:01;96086.28;;;10.06
78917;BMP280;68315;48.608;11.436;2023-04-01T17:25:02;96089.41;;;10.03
78917;BMP280;68315;48.608;11.436;2023-04-01T17:27:44;96094.00;;;10.00
78917;BMP280;68315;48.608;11.436;2023-04-01T17:41:56;96113.94;;;9.78
78917;BMP280;68315;48.608;11.436;2023-04-01T17:47:00;96111.38;;;9.80
78917;BMP280;68315;48.608;11.436;2023-04-01T17:50:00;96116.16;;;9.72
78917;BMP280;68315;48.608;11.436;2023-04-01T17:52:33;96119.44;;;9.63
78917;BMP280;68315;48.608;11.436;2023-04-01T17:58:09;96127.50;;;9.61
78917;BMP280;68315;48.608;11.436;2023-04-01T18:00:49;96138.09;;;9.65
78917;BMP280;68315;48.608;11.436;2023-04-01T18:09:12;96137.00;;;9.75
78917;BMP280;68315;48.608;11.436;2023-04-01T18:20:36;96150.72;;;9.53
78917;BMP280;68315;48.608;11.436;2023-04-01T18:23:20;96160.19;;;9.52
78917;BMP280;68315;48.608;11.436;2023-04-01T18:25:50;96150.16;;;9.54
78917;BMP280;68315;48.608;11.436;2023-04-01T18:28:39;96151.44;;;9.61
78917;BMP280;68315;48.608;11.436;2023-04-01T18:31:13;96163.88;;;9.69
78917;BMP280;68315;48.608;11.436;2023-04-01T18:34:06;96163.31;;;9.63
78917;BMP280;68315;48.608;11.436;2023-04-01T18:36:43;96164.06;;;9.64
78917;BMP280;68315;48.608;11.436;2023-04-01T18:39:17;96170.66;;;9.68
78917;BMP280;68315;48.608;11.436;2023-04-01T18:41:59;96167.88;;;9.61
78917;BMP280;68315;48.608;11.436;2023-04-01T18:44:42;96171.38;;;9.61
78917;BMP280;68315;48.608;11.436;2023-04-01T18:47:19;96173.41;;;9.68
78917;BMP280;68315;48.608;11.436;2023-04-01T18:50:11;96173.91;;;9.59
78917;BMP280;68315;48.608;11.436;2023-04-01T18:52:44;96189.09;;;9.60
78917;BMP280;68315;48.608;11.436;2023-04-01T18:57:58;96190.75;;;9.63
78917;BMP280;68315;48.608;11.436;2023-04-01T19:00:36;96200.63;;;9.66
78917;BMP280;68315;48.608;11.436;2023-04-01T19:03:20;96194.75;;;9.62
78917;BMP280;68315;48.608;11.436;2023-04-01T19:05:48;96200.44;;;9.64
78917;BMP280;68315;48.608;11.436;2023-04-01T19:11:03;96205.72;;;9.62
78917;BMP280;68315;48.608;11.436;2023-04-01T19:13:40;96206.31;;;9.68
78917;BMP280;68315;48.608;11.436;2023-04-01T19:28:20;96219.63;;;9.64
78917;BMP280;68315;48.608;11.436;2023-04-01T19:30:50;96224.41;;;9.64
78917;BMP280;68315;48.608;11.436;2023-04-01T19:41:07;96218.72;;;9.69
78917;BMP280;68315;48.608;11.436;2023-04-01T19:43:59;96226.41;;;9.63
78917;BMP280;68315;48.608;11.436;2023-04-01T19:46:36;96224.75;;;9.60
78917;BMP280;68315;48.608;11.436;2023-04-01T19:49:23;96221.78;;;9.51
78917;BMP280;68315;48.608;11.436;2023-04-01T19:54:47;96229.16;;;9.63
78917;BMP280;68315;48.608;11.436;2023-04-01T20:02:38;96240.81;;;9.56
78917;BMP280;68315;48.608;11.436;2023-04-01T20:07:51;96240.81;;;9.56
78917;BMP280;68315;48.608;11.436;2023-04-01T20:10:22;96246.31;;;9.56
78917;BMP280;68315;48.608;11.436;2023-04-01T20:13:12;96246.69;;;9.53
78917;BMP280;68315;48.608;11.436;2023-04-01T20:15:43;96246.69;;;9.53
78917;BMP280;68315;48.608;11.436;2023-04-01T20:18:32;96242.13;;;9.63
78917;BMP280;68315;48.608;11.436;2023-04-01T20:21:27;96252.16;;;9.60
78917;BMP280;68315;48.608;11.436;2023-04-01T20:24:01;96254.91;;;9.60
78917;BMP280;68315;48.608;11.436;2023-04-01T20:26:33;96256.38;;;9.61
78917;BMP280;68315;48.608;11.436;2023-04-01T20:29:23;96249.41;;;9.60
78917;BMP280;68315;48.608;11.436;2023-04-01T20:32:03;96254.91;;;9.60
78917;BMP280;68315;48.608;11.436;2023-04-01T20:45:54;96252.00;;;9.58
78917;BMP280;68315;48.608;11.436;2023-04-01T20:51:22;96270.25;;;9.48
78917;BMP280;68315;48.608;11.436;2023-04-01T20:57:11;96283.44;;;9.50
78917;BMP280;68315;48.608;11.436;2023-04-01T21:08:12;96279.03;;;9.47
78917;BMP280;68315;48.608;11.436;2023-04-01T21:16:04;96294.31;;;9.34
78917;BMP280;68315;48.608;11.436;2023-04-01T21:21:34;96292.16;;;9.41
78917;BMP280;68315;48.608;11.436;2023-04-01T21:27:16;96300.16;;;9.31
78917;BMP280;68315;48.608;11.436;2023-04-01T21:30:01;96289.88;;;9.24
78917;BMP280;68315;48.608;11.436;2023-04-01T21:32:44;96301.41;;;9.22
78917;BMP280;68315;48.608;11.436;2023-04-01T21:35:26;96293.53;;;9.19
78917;BMP280;68315;48.608;11.436;2023-04-01T21:40:39;96294.22;;;9.12
78917;BMP280;68315;48.608;11.436;2023-04-01T21:54:33;96321.00;;;8.98
78917;BMP280;68315;48.608;11.436;2023-04-01T21:57:27;96326.28;;;8.96
78917;BMP280;68315;48.608;11.436;2023-04-01T22:00:18;96333.19;;;8.90
78917;BMP280;68315;48.608;11.436;2023-04-01T22:05:39;96330.53;;;8.77
78917;BMP280;68315;48.608;11.436;2023-04-01T22:08:31;96321.78;;;8.78
78917;BMP280;68315;48.608;11.436;2023-04-01T22:11:14;96335.97;;;8.69
78917;BMP280;68315;48.608;11.436;2023-04-01T22:16:32;96326.03;;;8.58
78917;BMP280;68315;48.608;11.436;2023-04-01T22:19:15;96339.16;;;8.60
78917;BMP280;68315;48.608;11.436;2023-04-01T22:24:33;96347.47;;;8.47
78917;BMP280;68315;48.608;11.436;2023-04-01T22:32:28;96348.88;;;8.40
78917;BMP280;68315;48.608;11.436;2023-04-01T22:35:03;96346.88;;;8.41
78917;BMP280;68315;48.608;11.436;2023-04-01T22:40:30;96344.88;;;8.41
78917;BMP280;68315;48.608;11.436;2023-04-01T22:43:01;96338.13;;;8.42
78917;BMP280;68315;48.608;11.436;2023-04-01T22:46:09;96356.38;;;8.40
78917;BMP280;68315;48.608;11.436;2023-04-01T22:48:36;96363.16;;;8.46
78917;BMP280;68315;48.608;11.436;2023-04-01T22:54:02;96353.09;;;8.41
78917;BMP280;68315;48.608;11.436;2023-04-01T22:56:36;96340.19;;;8.49
78917;BMP280;68315;48.608;11.436;2023-04-01T22:59:15;96354.06;;;8.51
78917;BMP280;68315;48.608;11.436;2023-04-01T23:01:48;96352.31;;;8.54
78917;BMP280;68315;48.608;11.436;2023-04-01T23:04:17;96346.44;;;8.57